x

Ilm2 - 5 Miles Se Of Wrightsville Beach, Nc (41038) Weather Station

9:08am - Tue 16th Oct 2018 All times are EDT. -4 hours from GMT.

  • Wind
    11mph, 18mph gusts
  • Sea Temp 78°f
  • Air Temp 77°f
  • Sea Pressure 1020.9mb
  • Ilm2 - 5 Miles Se Of Wrightsville Beach, Nc
  • Ilm2 - 5 Miles Se Of Wrightsville Beach, Nc

More Historic Weather Station data

Upgrade to MSW Pro to gain access to the past 30 days of data for over 8000 Wavebouys and Weather Stations around the globe.

Join

Comparision Forecast

View Surf forecast
   
Tue 10/16 9:08am 11 18 mph 1020.9mb 78f 77f
8:08am 9 13 mph 1020.1mb 78f 77f
1:08am 11 18 mph 1020mb 79f 79f
12:08am 11 16 mph 1020.2mb 79f 79f
Mon 10/15 11:08pm 11 16 mph 1020.7mb 79f 79f
10:08pm 11 16 mph 1020.5mb 79f 79f
7:08pm 11 16 mph 1020.2mb 79f 79f
6:08pm 11 18 mph 1019.9mb 80f 79f
4:08pm 11 16 mph 1020mb 80f 80f
3:08pm 9 13 mph 1020.3mb 80f 80f
2:08pm 11 16 mph 1020.8mb 79f 80f
1:08pm 11 16 mph 1021.8mb 79f 79f
12:08pm 9 16 mph 1022.3mb 79f 79f
11:08am 9 13 mph 1022.6mb 79f 79f
10:08am 4 9 mph 1022.6mb 79f 79f
9:08am 9 13 mph 1022.7mb 78f 79f
8:08am 9 16 mph 1022.2mb 78f 79f
7:08am 11 18 mph 1021.7mb 78f 78f
6:08am 16 20 mph 1020.9mb 78f 78f
5:08am 13 18 mph 1020.8mb 79f 78f
4:08am 11 18 mph 1021.2mb 79f 78f
3:08am 16 20 mph 1021.3mb 79f 78f
2:08am 16 20 mph 1021.5mb 79f 78f
1:08am 16 20 mph 1021.3mb 79f 78f
12:08am 16 20 mph 1021.5mb 79f 78f
Sun 10/14 11:08pm 13 18 mph 1021.7mb 79f 78f
10:08pm 13 18 mph 1021.7mb 79f 78f
9:08pm 13 18 mph 1021.5mb 79f 78f
8:08pm 11 16 mph 1021.2mb 79f 78f
7:08pm 11 16 mph 1020.7mb 79f 78f
6:08pm 13 18 mph 1020.5mb 79f 77f
5:08pm 16 20 mph 1020.3mb 79f 76f
4:08pm 16 20 mph 1020.5mb 79f 76f
3:08pm 16 20 mph 1020.6mb 79f 76f
2:08pm 13 18 mph 1021mb 79f 76f
1:08pm 13 18 mph 1021.4mb 79f 75f
12:08pm 13 20 mph 1021.4mb 79f 76f
9:08am 16 22 mph 1020.8mb 79f 73f
8:08am 16 20 mph 1019.9mb 79f 73f
Sat 10/13 11:08pm 16 20 mph 1017.9mb 79f 71f
10:08pm 16 22 mph 1017.7mb 79f 71f
9:08pm 16 20 mph 1016.8mb 79f 72f
8:08pm 9 16 mph 1016.1mb 79f 73f
7:08pm 9 16 mph 1014.7mb 80f 73f
6:08pm 9 11 mph 1014.2mb 80f 74f
5:08pm 9 16 mph 1013.7mb 80f 74f
4:08pm 7 11 mph 1013.2mb 80f 74f
3:08pm 7 11 mph 1012.9mb 80f 73f
2:08pm 7 11 mph 1013mb 80f 72f
1:08pm 9 13 mph 1013.5mb 79f 72f
12:08pm 9 13 mph 1013.5mb 80f 71f
10:08am 7 9 mph 1012.5mb 79f 70f
9:08am 4 9 mph 1012.1mb 79f 69f
8:08am 7 9 mph 1011.6mb 79f 69f
7:08am 7 11 mph 1011mb 79f 68f
6:08am 7 9 mph 1010.2mb 79f 69f
5:08am 7 13 mph 1009.7mb 79f 69f
4:08am 4 9 mph 1009.3mb 79f 69f
3:08am 2 7 mph 1009.1mb 79f 69f
2:08am 7 9 mph 1009.7mb 79f 68f
1:08am 7 11 mph 1009.6mb 79f 71f
12:08am 9 13 mph 1009.8mb 79f 71f
Fri 10/12 11:08pm 13 18 mph 1010mb 79f 71f
10:08pm 13 18 mph 1009.7mb 79f 72f
9:08pm 9 13 mph 1009.2mb 80f 73f
8:08pm 11 16 mph 1008.8mb 80f 74f
7:08pm 11 16 mph 1008.3mb 80f 75f
6:08pm 9 16 mph 1008.3mb 80f 74f
5:08pm 7 13 mph 1008.2mb 80f 73f
4:08pm 9 13 mph 1008.2mb 80f 73f
3:08pm 4 7 mph 1007.9mb 80f 72f